createdAt,value
2022-10-10T00:01:37.175Z,15.67
2022-10-10T00:04:06.387Z,15.68
2022-10-10T00:06:34.809Z,15.66
2022-10-10T00:09:05.082Z,15.66
2022-10-10T00:11:33.076Z,15.65
2022-10-10T00:14:00.692Z,15.65
2022-10-10T00:16:28.429Z,15.62
2022-10-10T00:18:55.881Z,15.61
2022-10-10T00:21:23.671Z,15.58
2022-10-10T00:23:51.164Z,15.58
2022-10-10T00:26:19.574Z,15.56
2022-10-10T00:28:48.399Z,15.53
2022-10-10T00:31:16.347Z,15.51
2022-10-10T00:33:44.391Z,15.49
2022-10-10T00:36:12.127Z,15.47
2022-10-10T00:38:39.616Z,15.46
2022-10-10T00:41:08.165Z,15.45
2022-10-10T00:43:36.369Z,15.42
2022-10-10T00:46:04.602Z,15.40
2022-10-10T00:48:43.436Z,15.37
2022-10-10T00:51:16.190Z,15.35
2022-10-10T00:54:02.236Z,15.32
2022-10-10T00:56:38.061Z,15.30
2022-10-10T00:59:11.043Z,15.27
2022-10-10T01:01:41.296Z,15.25
2022-10-10T01:04:45.595Z,15.25
2022-10-10T01:07:19.050Z,15.23
2022-10-10T01:09:49.364Z,15.20
2022-10-10T01:12:58.810Z,15.19
2022-10-10T01:15:32.279Z,15.17
2022-10-10T01:18:02.704Z,15.12
2022-10-10T01:21:09.273Z,15.10
2022-10-10T01:24:22.802Z,15.09
2022-10-10T01:26:58.293Z,15.06
2022-10-10T01:29:50.790Z,15.05
2022-10-10T01:33:00.040Z,15.05
2022-10-10T01:35:40.506Z,15.04
2022-10-10T01:38:29.013Z,15.03
2022-10-10T01:41:17.394Z,15.03
2022-10-10T01:43:44.905Z,15.02
2022-10-10T01:46:17.678Z,15.00
2022-10-10T01:48:50.287Z,15.01
2022-10-10T01:51:52.737Z,15.02
2022-10-10T01:55:01.411Z,15.01
2022-10-10T01:57:56.014Z,14.99
2022-10-10T02:00:23.591Z,14.98
2022-10-10T02:02:59.517Z,15.00
2022-10-10T02:05:54.864Z,15.02
2022-10-10T02:08:48.013Z,15.04
2022-10-10T02:11:15.704Z,15.03
2022-10-10T02:13:49.306Z,15.03
2022-10-10T02:16:24.289Z,15.05
2022-10-10T02:18:53.418Z,15.06
2022-10-10T02:21:21.970Z,15.08
2022-10-10T02:23:54.148Z,15.12
2022-10-10T02:26:23.823Z,15.13
2022-10-10T02:28:59.721Z,15.11
2022-10-10T02:31:42.153Z,15.12
2022-10-10T02:34:27.112Z,15.13
2022-10-10T02:37:02.840Z,15.15
2022-10-10T02:39:36.052Z,15.11
2022-10-10T02:42:07.287Z,15.09
2022-10-10T02:44:37.049Z,15.08
2022-10-10T02:47:04.615Z,15.06
2022-10-10T02:49:34.869Z,15.02
2022-10-10T02:52:03.049Z,14.93
2022-10-10T02:54:30.813Z,14.87
2022-10-10T02:56:58.676Z,14.84
2022-10-10T02:59:26.453Z,14.83
2022-10-10T03:01:54.004Z,14.83
2022-10-10T03:04:21.764Z,14.83
2022-10-10T03:06:49.316Z,14.82
2022-10-10T03:09:17.116Z,14.82
2022-10-10T03:11:44.788Z,14.81
2022-10-10T03:14:12.528Z,14.81
2022-10-10T03:16:40.028Z,14.78
2022-10-10T03:19:08.754Z,14.75
2022-10-10T03:21:36.849Z,14.76
2022-10-10T03:24:05.787Z,14.72
2022-10-10T03:26:33.789Z,14.72
2022-10-10T03:29:03.667Z,14.71
2022-10-10T03:31:32.336Z,14.74
2022-10-10T03:33:59.850Z,14.74
2022-10-10T03:36:27.566Z,14.75
2022-10-10T03:38:55.173Z,14.79
2022-10-10T03:41:22.909Z,14.80
2022-10-10T03:43:50.409Z,14.84
2022-10-10T03:46:18.214Z,14.86
2022-10-10T03:48:45.784Z,14.85
2022-10-10T03:51:13.597Z,14.84
2022-10-10T03:53:41.311Z,14.80
2022-10-10T03:56:09.056Z,14.76
2022-10-10T03:58:36.669Z,14.76
2022-10-10T04:01:05.474Z,14.78
2022-10-10T04:03:33.215Z,14.80
2022-10-10T04:06:01.017Z,14.80
2022-10-10T04:08:30.045Z,14.77
2022-10-10T04:10:57.985Z,14.78
2022-10-10T04:13:26.026Z,14.76
2022-10-10T04:15:56.865Z,14.75
2022-10-10T04:18:25.285Z,14.75
2022-10-10T04:20:53.311Z,14.75
2022-10-10T04:23:21.275Z,14.75
2022-10-10T04:25:53.267Z,14.74
2022-10-10T04:28:20.980Z,14.72
2022-10-10T04:30:48.941Z,14.71
2022-10-10T04:33:16.550Z,14.71
2022-10-10T04:35:44.408Z,14.71
2022-10-10T04:38:11.915Z,14.70
2022-10-10T04:40:39.765Z,14.70
2022-10-10T04:43:07.251Z,14.71
2022-10-10T04:45:37.599Z,14.72
2022-10-10T04:48:05.669Z,14.74
2022-10-10T04:50:33.770Z,14.74
2022-10-10T04:53:01.330Z,14.75
2022-10-10T04:55:29.022Z,14.75
2022-10-10T04:57:56.558Z,14.73
2022-10-10T05:00:24.631Z,14.74
2022-10-10T05:02:52.468Z,14.77
2022-10-10T05:05:20.351Z,14.81
2022-10-10T05:07:51.798Z,14.82
2022-10-10T05:10:22.810Z,14.80
2022-10-10T05:12:50.558Z,14.76
2022-10-10T05:15:19.468Z,14.74
2022-10-10T05:17:46.933Z,14.72
2022-10-10T05:20:15.782Z,14.71
2022-10-10T05:22:43.270Z,14.67
2022-10-10T05:25:11.582Z,14.67
2022-10-10T05:27:39.028Z,14.67
2022-10-10T05:30:07.500Z,14.68
2022-10-10T05:32:35.494Z,14.69
2022-10-10T05:35:04.807Z,14.71
2022-10-10T05:37:33.660Z,14.73
2022-10-10T05:40:01.409Z,14.74
2022-10-10T05:42:29.177Z,14.76
2022-10-10T05:44:56.932Z,14.78
2022-10-10T05:47:28.075Z,14.78
2022-10-10T05:49:56.038Z,14.79
2022-10-10T05:52:23.574Z,14.81
2022-10-10T05:54:51.399Z,14.88
2022-10-10T05:57:18.841Z,14.92
2022-10-10T05:59:46.636Z,14.99
2022-10-10T06:02:14.679Z,15.05
2022-10-10T06:04:42.604Z,15.11
2022-10-10T06:07:10.194Z,15.19
2022-10-10T06:09:38.067Z,15.23
2022-10-10T06:12:05.663Z,15.28
2022-10-10T06:14:33.466Z,15.25
2022-10-10T06:17:00.891Z,15.24
2022-10-10T06:19:28.657Z,15.23
2022-10-10T06:21:56.177Z,15.21
2022-10-10T06:24:23.944Z,15.23
2022-10-10T06:26:51.482Z,15.25
2022-10-10T06:29:19.272Z,15.30
2022-10-10T06:31:46.878Z,15.34
2022-10-10T06:34:14.708Z,15.37
2022-10-10T06:36:42.202Z,15.39
2022-10-10T06:39:10.121Z,15.41
2022-10-10T06:41:37.558Z,15.44
2022-10-10T06:44:12.130Z,15.45
2022-10-10T06:46:39.588Z,15.47
2022-10-10T06:49:07.526Z,15.51
2022-10-10T06:51:35.313Z,15.57
2022-10-10T06:54:03.247Z,15.62
2022-10-10T06:56:30.754Z,15.65
2022-10-10T06:58:58.693Z,15.68
2022-10-10T07:01:27.215Z,15.71
2022-10-10T07:03:55.020Z,15.73
2022-10-10T07:06:22.851Z,15.74
2022-10-10T07:08:50.766Z,15.76
2022-10-10T07:11:18.356Z,15.76
2022-10-10T07:13:46.193Z,15.80
2022-10-10T07:16:13.629Z,15.83
2022-10-10T07:18:41.411Z,15.88
2022-10-10T07:21:09.533Z,15.95
2022-10-10T07:23:37.358Z,16.03
2022-10-10T07:26:10.913Z,16.12
2022-10-10T07:28:39.082Z,16.22
2022-10-10T07:31:10.636Z,16.32
2022-10-10T07:33:49.850Z,16.42
2022-10-10T07:36:19.768Z,16.52
2022-10-10T07:38:51.992Z,16.62
2022-10-10T07:41:20.094Z,16.68
2022-10-10T07:43:48.064Z,16.76
2022-10-10T07:46:18.988Z,16.78
2022-10-10T07:48:48.764Z,16.79
2022-10-10T07:51:16.615Z,16.78
2022-10-10T07:53:44.684Z,16.77
2022-10-10T07:56:12.489Z,16.80
2022-10-10T07:58:40.636Z,16.86
2022-10-10T08:01:11.652Z,16.94
2022-10-10T08:03:40.477Z,16.96
2022-10-10T08:06:12.710Z,17.00
2022-10-10T08:08:50.485Z,17.01
2022-10-10T08:11:22.091Z,17.04
2022-10-10T08:13:51.120Z,17.07
2022-10-10T08:16:19.647Z,17.08
2022-10-10T08:18:47.516Z,17.12
2022-10-10T08:21:17.381Z,17.15
2022-10-10T08:23:45.480Z,17.19
2022-10-10T08:26:15.877Z,17.22
2022-10-10T08:28:45.465Z,17.27
2022-10-10T08:31:18.284Z,17.32
2022-10-10T08:33:47.024Z,17.34
2022-10-10T08:36:22.146Z,17.42
2022-10-10T08:38:50.794Z,17.50
2022-10-10T08:41:47.471Z,17.58
2022-10-10T08:44:42.510Z,17.62
2022-10-10T08:47:09.825Z,17.67
2022-10-10T08:50:02.578Z,17.70
2022-10-10T08:52:40.910Z,17.75
2022-10-10T08:55:21.896Z,17.81
2022-10-10T08:58:11.441Z,17.88
2022-10-10T09:00:47.689Z,17.97
2022-10-10T09:03:39.310Z,18.02
2022-10-10T09:06:15.857Z,18.06
2022-10-10T09:09:14.215Z,18.12
2022-10-10T09:11:53.902Z,18.17
2022-10-10T09:14:52.236Z,18.21
2022-10-10T09:18:00.242Z,18.28
2022-10-10T09:20:33.713Z,18.35
2022-10-10T09:23:08.643Z,18.43
2022-10-10T09:25:45.471Z,18.51
2022-10-10T09:28:30.614Z,18.59
2022-10-10T09:31:01.298Z,18.66
2022-10-10T09:34:36.615Z,18.80
2022-10-10T09:37:13.687Z,18.89
2022-10-10T09:40:07.189Z,18.98
2022-10-10T09:42:39.265Z,19.06
2022-10-10T09:45:32.090Z,19.12
2022-10-10T09:47:59.537Z,19.15
2022-10-10T09:50:27.355Z,19.20
2022-10-10T09:52:56.212Z,19.23
2022-10-10T09:55:59.579Z,19.27
2022-10-10T09:58:36.102Z,19.30
2022-10-10T10:01:25.014Z,19.36
2022-10-10T10:04:28.433Z,19.44
2022-10-10T10:07:24.712Z,19.51
2022-10-10T10:09:57.880Z,19.54
2022-10-10T10:12:30.830Z,19.63
2022-10-10T10:15:24.786Z,19.73
2022-10-10T10:18:22.374Z,19.83
2022-10-10T10:20:54.276Z,19.88
2022-10-10T10:23:33.156Z,19.97
2022-10-10T10:26:14.692Z,20.04
2022-10-10T10:28:43.851Z,20.13
2022-10-10T10:31:49.245Z,20.24
2022-10-10T10:35:14.060Z,20.33
2022-10-10T10:38:15.949Z,20.39
2022-10-10T10:41:24.915Z,20.46
2022-10-10T10:44:28.816Z,20.53
2022-10-10T10:47:31.644Z,20.64
2022-10-10T10:50:32.726Z,20.67
2022-10-10T10:53:34.032Z,20.69
2022-10-10T10:57:07.180Z,20.74
2022-10-10T11:00:21.812Z,20.79
2022-10-10T11:05:18.503Z,20.94
2022-10-10T11:07:16.791Z,21.09
2022-10-10T11:09:50.439Z,21.24
2022-10-10T11:12:59.722Z,21.38
2022-10-10T11:16:05.958Z,21.42
2022-10-10T11:18:43.466Z,21.43
2022-10-10T11:21:26.802Z,21.44
2022-10-10T11:24:02.851Z,21.42
2022-10-10T11:26:37.640Z,21.41
2022-10-10T11:29:24.698Z,21.41
2022-10-10T11:32:03.221Z,21.38
2022-10-10T11:35:09.230Z,21.37
2022-10-10T11:37:49.378Z,21.39
2022-10-10T11:40:50.600Z,21.44
2022-10-10T11:43:30.438Z,21.47
2022-10-10T11:46:37.226Z,21.42
2022-10-10T11:49:13.581Z,21.38
2022-10-10T11:52:09.595Z,21.39
2022-10-10T11:55:13.154Z,21.41
2022-10-10T11:57:53.405Z,21.45
2022-10-10T12:00:21.581Z,21.49
2022-10-10T12:02:49.530Z,21.56
2022-10-10T12:05:30.894Z,21.62
2022-10-10T12:07:59.927Z,21.69
2022-10-10T12:10:35.142Z,21.76
2022-10-10T12:13:38.625Z,21.79
2022-10-10T12:16:15.501Z,21.83
2022-10-10T12:18:51.054Z,21.83
2022-10-10T12:21:25.944Z,21.84
2022-10-10T12:24:13.140Z,21.83
2022-10-10T12:26:55.847Z,21.83
2022-10-10T12:29:56.713Z,21.91
2022-10-10T12:32:48.019Z,21.98
2022-10-10T12:35:40.850Z,22.07
2022-10-10T12:38:33.539Z,22.16
2022-10-10T12:41:15.358Z,22.22
2022-10-10T12:44:11.466Z,22.21
2022-10-10T12:46:39.423Z,22.17
2022-10-10T12:49:25.207Z,22.12
2022-10-10T12:52:00.604Z,22.04
2022-10-10T12:54:38.143Z,21.98
2022-10-10T12:57:12.012Z,21.94
2022-10-10T12:59:40.518Z,21.88
2022-10-10T13:02:29.631Z,21.80
2022-10-10T13:05:01.352Z,21.72
2022-10-10T13:07:29.399Z,21.65
2022-10-10T13:10:26.461Z,21.60
2022-10-10T13:13:15.900Z,21.51
2022-10-10T13:15:58.212Z,21.45
2022-10-10T13:18:49.297Z,21.37
2022-10-10T13:21:29.110Z,21.32
2022-10-10T13:24:03.753Z,21.28
2022-10-10T13:26:44.708Z,21.25
2022-10-10T13:29:21.436Z,21.17
2022-10-10T13:31:50.301Z,21.11
2022-10-10T13:34:26.320Z,21.06
2022-10-10T13:36:58.236Z,20.99
2022-10-10T13:39:28.665Z,20.93
2022-10-10T13:41:57.240Z,20.92
2022-10-10T13:44:51.742Z,20.91
2022-10-10T13:47:52.091Z,20.88
2022-10-10T13:50:33.137Z,20.85
2022-10-10T13:53:23.133Z,20.82
2022-10-10T13:56:00.423Z,20.77
2022-10-10T13:58:40.832Z,20.75
2022-10-10T14:01:44.856Z,20.75
2022-10-10T14:04:12.824Z,20.71
2022-10-10T14:06:47.838Z,20.66
2022-10-10T14:09:53.410Z,20.61
2022-10-10T14:12:31.613Z,20.57
2022-10-10T14:15:01.884Z,20.53
2022-10-10T14:17:29.953Z,20.49
2022-10-10T14:19:58.080Z,20.47
2022-10-10T14:22:25.573Z,20.45
2022-10-10T14:24:53.416Z,20.42
2022-10-10T14:27:25.092Z,20.39
2022-10-10T14:29:58.081Z,20.33
2022-10-10T14:32:26.994Z,20.29
2022-10-10T14:34:54.467Z,20.25
2022-10-10T14:37:28.657Z,20.23
2022-10-10T14:39:56.795Z,20.16
2022-10-10T14:42:25.927Z,20.13
2022-10-10T14:44:53.473Z,20.09
2022-10-10T14:47:24.516Z,20.04
2022-10-10T14:49:53.507Z,20.00
2022-10-10T14:52:21.410Z,19.96
2022-10-10T14:54:48.905Z,19.92
2022-10-10T14:57:16.732Z,19.90
2022-10-10T14:59:48.764Z,19.82
2022-10-10T15:02:22.663Z,19.76
2022-10-10T15:04:51.164Z,19.70
2022-10-10T15:07:19.461Z,19.67
2022-10-10T15:10:26.053Z,19.62
2022-10-10T15:12:43.886Z,19.58
2022-10-10T15:15:13.624Z,19.54
2022-10-10T15:17:41.828Z,19.50
2022-10-10T15:20:12.603Z,19.43
2022-10-10T15:22:40.748Z,19.40
2022-10-10T15:25:09.791Z,19.36
2022-10-10T15:27:38.598Z,19.34
2022-10-10T15:30:08.528Z,19.30
2022-10-10T15:32:39.928Z,19.29
2022-10-10T15:35:17.702Z,19.25
2022-10-10T15:37:45.886Z,19.20
2022-10-10T15:40:19.877Z,19.14
2022-10-10T15:42:49.641Z,19.10
2022-10-10T15:45:43.699Z,19.05
2022-10-10T15:48:06.563Z,19.00
2022-10-10T15:50:39.219Z,18.92
2022-10-10T15:53:07.499Z,18.86
2022-10-10T15:55:42.623Z,18.83
2022-10-10T15:58:10.137Z,18.76
2022-10-10T16:00:41.057Z,18.73
2022-10-10T16:03:09.488Z,18.71
2022-10-10T16:05:39.215Z,18.68
2022-10-10T16:08:07.766Z,18.64
2022-10-10T16:10:40.228Z,18.61
2022-10-10T16:13:09.076Z,18.58
2022-10-10T16:15:36.997Z,18.56
2022-10-10T16:18:04.867Z,18.55
2022-10-10T16:20:32.654Z,18.53
2022-10-10T16:23:00.132Z,18.54
2022-10-10T16:25:27.592Z,18.51
2022-10-10T16:27:55.339Z,18.51
2022-10-10T16:30:22.888Z,18.48
2022-10-10T16:32:50.455Z,18.47
2022-10-10T16:35:19.127Z,18.45
2022-10-10T16:37:46.657Z,18.45
2022-10-10T16:40:14.414Z,18.45
2022-10-10T16:42:42.035Z,18.45
2022-10-10T16:45:10.995Z,18.45
2022-10-10T16:47:38.519Z,18.42
2022-10-10T16:50:07.581Z,18.39
2022-10-10T16:52:38.018Z,18.35
2022-10-10T16:55:07.998Z,18.32
2022-10-10T16:57:38.825Z,18.26
2022-10-10T17:00:09.368Z,18.23
2022-10-10T17:02:38.932Z,18.20
2022-10-10T17:05:07.746Z,18.18
2022-10-10T17:07:36.467Z,18.17
2022-10-10T17:10:04.874Z,18.14
2022-10-10T17:12:32.395Z,18.13
2022-10-10T17:15:01.580Z,18.11
2022-10-10T17:17:29.135Z,18.08
2022-10-10T17:19:56.863Z,18.04
2022-10-10T17:22:24.345Z,18.02
2022-10-10T17:24:51.774Z,17.98
2022-10-10T17:27:20.349Z,17.93
2022-10-10T17:29:47.941Z,17.86
2022-10-10T17:32:15.545Z,17.84
2022-10-10T17:34:43.255Z,17.81
2022-10-10T17:37:10.895Z,17.77
2022-10-10T17:39:38.511Z,17.74
2022-10-10T17:42:06.293Z,17.71
2022-10-10T17:44:40.318Z,17.70
2022-10-10T17:47:11.429Z,17.69
2022-10-10T17:49:39.207Z,17.67
2022-10-10T17:52:06.753Z,17.64
2022-10-10T17:54:34.513Z,17.61
2022-10-10T17:57:02.829Z,17.58
2022-10-10T17:59:31.610Z,17.54
2022-10-10T18:01:59.397Z,17.53
2022-10-10T18:04:26.924Z,17.50
2022-10-10T18:06:54.626Z,17.51
2022-10-10T18:09:22.632Z,17.50
2022-10-10T18:11:50.175Z,17.51
2022-10-10T18:14:17.679Z,17.51
2022-10-10T18:16:45.469Z,17.51
2022-10-10T18:19:13.012Z,17.50
2022-10-10T18:21:40.775Z,17.47
2022-10-10T18:24:08.809Z,17.44
2022-10-10T18:26:36.547Z,17.43
2022-10-10T18:29:04.854Z,17.42
2022-10-10T18:31:36.466Z,17.43
2022-10-10T18:34:05.288Z,17.41
2022-10-10T18:36:38.638Z,17.41
2022-10-10T18:39:13.885Z,17.38
2022-10-10T18:41:42.198Z,17.36
2022-10-10T18:44:14.431Z,17.34
2022-10-10T18:46:44.481Z,17.34
2022-10-10T18:49:16.465Z,17.33
2022-10-10T18:51:44.432Z,17.31
2022-10-10T18:54:16.608Z,17.29
2022-10-10T18:56:46.629Z,17.28
2022-10-10T18:59:22.248Z,17.26
2022-10-10T19:01:52.467Z,17.23
2022-10-10T19:04:22.209Z,17.20
2022-10-10T19:06:55.992Z,17.18
2022-10-10T19:09:25.185Z,17.15
2022-10-10T19:11:53.459Z,17.15
2022-10-10T19:14:21.169Z,17.14
2022-10-10T19:16:49.188Z,17.12
2022-10-10T19:19:19.146Z,17.10
2022-10-10T19:21:48.544Z,17.09
2022-10-10T19:24:20.880Z,17.07
2022-10-10T19:26:56.674Z,17.03
2022-10-10T19:29:27.426Z,17.00
2022-10-10T19:31:56.257Z,16.99
2022-10-10T19:34:24.799Z,16.95
2022-10-10T19:36:53.734Z,16.91
2022-10-10T19:39:21.414Z,16.87
2022-10-10T19:41:49.594Z,16.84
2022-10-10T19:44:17.211Z,16.85
2022-10-10T19:46:44.767Z,16.87
2022-10-10T19:49:13.094Z,16.87
2022-10-10T19:51:40.654Z,16.89
2022-10-10T19:54:08.162Z,16.91
2022-10-10T19:56:36.787Z,16.89
2022-10-10T19:59:05.940Z,16.89
2022-10-10T20:01:33.693Z,16.87
2022-10-10T20:04:01.786Z,16.85
2022-10-10T20:06:29.373Z,16.82
2022-10-10T20:08:56.900Z,16.82
2022-10-10T20:11:26.494Z,16.81
2022-10-10T20:13:55.406Z,16.79
2022-10-10T20:16:25.488Z,16.75
2022-10-10T20:18:54.388Z,16.72
2022-10-10T20:21:32.429Z,16.73
2022-10-10T20:24:08.192Z,16.73
2022-10-10T20:26:37.390Z,16.73
2022-10-10T20:29:06.927Z,16.73
2022-10-10T20:31:36.950Z,16.71
2022-10-10T20:34:06.697Z,16.70
2022-10-10T20:36:35.933Z,16.71
2022-10-10T20:39:12.421Z,16.71
2022-10-10T20:41:42.494Z,16.74
2022-10-10T20:44:13.927Z,16.75
2022-10-10T20:46:44.362Z,16.77
2022-10-10T20:49:16.738Z,16.80
2022-10-10T20:51:48.633Z,16.82
2022-10-10T20:54:19.274Z,16.81
2022-10-10T20:56:49.664Z,16.81
2022-10-10T20:59:19.508Z,16.81
2022-10-10T21:01:47.438Z,16.80
2022-10-10T21:04:15.642Z,16.80
2022-10-10T21:06:43.430Z,16.79
2022-10-10T21:09:14.402Z,16.79
2022-10-10T21:11:44.103Z,16.77
2022-10-10T21:14:14.192Z,16.77
2022-10-10T21:16:42.366Z,16.78
2022-10-10T21:19:14.715Z,16.79
2022-10-10T21:21:42.947Z,16.79
2022-10-10T21:24:11.878Z,16.79
2022-10-10T21:26:42.203Z,16.78
2022-10-10T21:29:11.028Z,16.77
2022-10-10T21:31:40.178Z,16.76
2022-10-10T21:34:13.451Z,16.77
2022-10-10T21:36:41.566Z,16.75
2022-10-10T21:39:09.586Z,16.73
2022-10-10T21:41:37.882Z,16.72
2022-10-10T21:44:06.441Z,16.69
2022-10-10T21:46:37.085Z,16.70
2022-10-10T21:49:09.394Z,16.68
2022-10-10T21:51:40.604Z,16.68
2022-10-10T21:54:09.632Z,16.67
2022-10-10T21:56:37.843Z,16.65
2022-10-10T21:59:06.694Z,16.63
2022-10-10T22:01:34.766Z,16.60
2022-10-10T22:04:04.166Z,16.56
2022-10-10T22:06:32.412Z,16.55
2022-10-10T22:09:01.692Z,16.54
2022-10-10T22:11:31.863Z,16.54
2022-10-10T22:14:02.483Z,16.51
2022-10-10T22:16:32.316Z,16.50
2022-10-10T22:19:00.476Z,16.45
2022-10-10T22:21:31.988Z,16.42
2022-10-10T22:24:03.066Z,16.39
2022-10-10T22:26:31.616Z,16.39
2022-10-10T22:29:00.033Z,16.39
2022-10-10T22:31:29.208Z,16.38
2022-10-10T22:33:57.647Z,16.36
2022-10-10T22:36:25.209Z,16.32
2022-10-10T22:38:52.971Z,16.32
2022-10-10T22:41:20.405Z,16.33
2022-10-10T22:43:49.708Z,16.35
2022-10-10T22:46:17.451Z,16.34
2022-10-10T22:48:45.084Z,16.35
2022-10-10T22:51:16.272Z,16.37
2022-10-10T22:53:46.818Z,16.38
2022-10-10T22:56:20.134Z,16.39
2022-10-10T22:58:50.398Z,16.39
2022-10-10T23:01:22.862Z,16.38
2022-10-10T23:03:54.439Z,16.38
2022-10-10T23:06:22.160Z,16.41
2022-10-10T23:08:49.982Z,16.42
2022-10-10T23:11:17.654Z,16.42
2022-10-10T23:13:45.097Z,16.43
2022-10-10T23:16:12.954Z,16.45
2022-10-10T23:18:40.498Z,16.45
2022-10-10T23:21:08.156Z,16.45
2022-10-10T23:23:36.072Z,16.48
2022-10-10T23:26:09.129Z,16.49
2022-10-10T23:28:37.284Z,16.50
2022-10-10T23:31:08.012Z,16.50
2022-10-10T23:33:37.159Z,16.52
2022-10-10T23:36:11.813Z,16.52
2022-10-10T23:38:39.950Z,16.52
2022-10-10T23:41:10.241Z,16.53
2022-10-10T23:43:37.763Z,16.52
2022-10-10T23:46:06.265Z,16.53
2022-10-10T23:48:34.391Z,16.52
2022-10-10T23:51:01.957Z,16.51
2022-10-10T23:53:29.719Z,16.52
2022-10-10T23:55:57.422Z,16.50
2022-10-10T23:58:25.025Z,16.50
